sensor_id;sensor_type;location;lat;lon;timestamp;temperature;humidity
2855;DHT22;1435;49.472;10.940;2023-05-10T00:03:40;18.00;99.90
2855;DHT22;1435;49.472;10.940;2023-05-10T00:08:42;17.90;99.90
2855;DHT22;1435;49.472;10.940;2023-05-10T00:13:45;17.90;99.90
2855;DHT22;1435;49.472;10.940;2023-05-10T00:18:47;17.80;99.90
2855;DHT22;1435;49.472;10.940;2023-05-10T00:23:48;17.80;99.90
2855;DHT22;1435;49.472;10.940;2023-05-10T00:28:51;17.80;99.90
2855;DHT22;1435;49.472;10.940;2023-05-10T00:33:53;17.70;99.90
2855;DHT22;1435;49.472;10.940;2023-05-10T00:38:55;17.70;99.90
2855;DHT22;1435;49.472;10.940;2023-05-10T00:43:58;17.70;99.90
2855;DHT22;1435;49.472;10.940;2023-05-10T00:48:59;17.60;99.90
2855;DHT22;1435;49.472;10.940;2023-05-10T00:54:02;17.60;99.90
2855;DHT22;1435;49.472;10.940;2023-05-10T00:59:05;17.50;99.90
2855;DHT22;1435;49.472;10.940;2023-05-10T01:04:07;17.50;99.90
2855;DHT22;1435;49.472;10.940;2023-05-10T01:09:09;17.40;99.90
2855;DHT22;1435;49.472;10.940;2023-05-10T01:14:13;17.40;99.90
2855;DHT22;1435;49.472;10.940;2023-05-10T01:19:19;17.30;99.90
2855;DHT22;1435;49.472;10.940;2023-05-10T01:24:50;17.20;99.90
2855;DHT22;1435;49.472;10.940;2023-05-10T01:30:23;17.20;99.90
2855;DHT22;1435;49.472;10.940;2023-05-10T01:35:35;17.20;99.90
2855;DHT22;1435;49.472;10.940;2023-05-10T01:40:45;17.20;99.90
2855;DHT22;1435;49.472;10.940;2023-05-10T01:45:57;17.10;99.90
2855;DHT22;1435;49.472;10.940;2023-05-10T01:51:10;17.10;99.90
2855;DHT22;1435;49.472;10.940;2023-05-10T01:56:13;17.10;99.90
2855;DHT22;1435;49.472;10.940;2023-05-10T02:01:15;17.10;99.90
2855;DHT22;1435;49.472;10.940;2023-05-10T02:06:20;17.00;99.90
2855;DHT22;1435;49.472;10.940;2023-05-10T02:11:25;17.00;99.90
2855;DHT22;1435;49.472;10.940;2023-05-10T02:16:27;17.00;99.90
2855;DHT22;1435;49.472;10.940;2023-05-10T02:21:33;16.90;99.90
2855;DHT22;1435;49.472;10.940;2023-05-10T02:26:36;17.00;99.90
2855;DHT22;1435;49.472;10.940;2023-05-10T02:31:38;16.90;99.90
2855;DHT22;1435;49.472;10.940;2023-05-10T02:36:45;16.90;99.90
2855;DHT22;1435;49.472;10.940;2023-05-10T02:41:48;16.80;99.90
2855;DHT22;1435;49.472;10.940;2023-05-10T02:46:50;16.80;99.90
2855;DHT22;1435;49.472;10.940;2023-05-10T02:51:57;16.80;99.90
2855;DHT22;1435;49.472;10.940;2023-05-10T02:57:04;16.80;99.90
2855;DHT22;1435;49.472;10.940;2023-05-10T03:02:07;16.80;99.90
2855;DHT22;1435;49.472;10.940;2023-05-10T03:07:10;16.80;99.90
2855;DHT22;1435;49.472;10.940;2023-05-10T03:12:18;16.90;99.90
2855;DHT22;1435;49.472;10.940;2023-05-10T03:17:25;16.80;99.90
2855;DHT22;1435;49.472;10.940;2023-05-10T03:22:36;16.70;99.90
2855;DHT22;1435;49.472;10.940;2023-05-10T03:27:40;16.60;99.90
2855;DHT22;1435;49.472;10.940;2023-05-10T03:32:43;16.40;99.90
2855;DHT22;1435;49.472;10.940;2023-05-10T03:37:46;16.40;99.90
2855;DHT22;1435;49.472;10.940;2023-05-10T03:42:47;16.10;99.90
2855;DHT22;1435;49.472;10.940;2023-05-10T03:47:49;16.10;99.90
2855;DHT22;1435;49.472;10.940;2023-05-10T03:52:53;15.80;99.90
2855;DHT22;1435;49.472;10.940;2023-05-10T03:58:01;15.90;99.90
2855;DHT22;1435;49.472;10.940;2023-05-10T04:03:03;15.70;99.90
2855;DHT22;1435;49.472;10.940;2023-05-10T04:08:06;15.70;99.90
2855;DHT22;1435;49.472;10.940;2023-05-10T04:13:08;15.70;99.90
2855;DHT22;1435;49.472;10.940;2023-05-10T04:18:10;15.70;99.90
2855;DHT22;1435;49.472;10.940;2023-05-10T04:23:13;15.80;99.90
2855;DHT22;1435;49.472;10.940;2023-05-10T04:28:16;15.60;99.90
2855;DHT22;1435;49.472;10.940;2023-05-10T04:33:18;15.60;99.90
2855;DHT22;1435;49.472;10.940;2023-05-10T04:38:21;15.50;99.90
2855;DHT22;1435;49.472;10.940;2023-05-10T04:43:23;15.50;99.90
2855;DHT22;1435;49.472;10.940;2023-05-10T04:48:25;15.50;99.90
2855;DHT22;1435;49.472;10.940;2023-05-10T04:53:28;15.60;99.90
2855;DHT22;1435;49.472;10.940;2023-05-10T04:58:30;15.40;99.90
2855;DHT22;1435;49.472;10.940;2023-05-10T05:03:32;15.20;99.90
2855;DHT22;1435;49.472;10.940;2023-05-10T05:08:35;15.10;99.90
2855;DHT22;1435;49.472;10.940;2023-05-10T05:13:36;15.10;99.90
2855;DHT22;1435;49.472;10.940;2023-05-10T05:18:39;15.10;99.90
2855;DHT22;1435;49.472;10.940;2023-05-10T05:23:42;15.20;99.90
2855;DHT22;1435;49.472;10.940;2023-05-10T05:28:44;15.10;99.90
2855;DHT22;1435;49.472;10.940;2023-05-10T05:33:45;15.20;99.90
2855;DHT22;1435;49.472;10.940;2023-05-10T05:38:49;15.20;99.90
2855;DHT22;1435;49.472;10.940;2023-05-10T05:43:50;15.20;99.90
2855;DHT22;1435;49.472;10.940;2023-05-10T05:48:52;15.10;99.90
2855;DHT22;1435;49.472;10.940;2023-05-10T05:53:55;15.20;99.90
2855;DHT22;1435;49.472;10.940;2023-05-10T05:58:57;15.30;99.90
2855;DHT22;1435;49.472;10.940;2023-05-10T06:03:58;15.20;99.90
2855;DHT22;1435;49.472;10.940;2023-05-10T06:09:02;15.30;99.90
2855;DHT22;1435;49.472;10.940;2023-05-10T06:14:04;15.30;99.90
2855;DHT22;1435;49.472;10.940;2023-05-10T06:19:07;15.20;99.90
2855;DHT22;1435;49.472;10.940;2023-05-10T06:24:10;15.20;99.90
2855;DHT22;1435;49.472;10.940;2023-05-10T06:29:12;15.10;99.90
2855;DHT22;1435;49.472;10.940;2023-05-10T06:34:15;15.10;99.90
2855;DHT22;1435;49.472;10.940;2023-05-10T06:39:18;15.10;99.90
2855;DHT22;1435;49.472;10.940;2023-05-10T06:44:20;15.20;99.90
2855;DHT22;1435;49.472;10.940;2023-05-10T06:49:22;15.20;99.90
2855;DHT22;1435;49.472;10.940;2023-05-10T06:54:25;15.20;99.90
2855;DHT22;1435;49.472;10.940;2023-05-10T06:59:26;15.20;99.90
2855;DHT22;1435;49.472;10.940;2023-05-10T07:04:28;15.30;99.90
2855;DHT22;1435;49.472;10.940;2023-05-10T07:09:31;15.40;99.90
2855;DHT22;1435;49.472;10.940;2023-05-10T07:14:33;15.40;99.90
2855;DHT22;1435;49.472;10.940;2023-05-10T07:19:35;15.30;99.90
2855;DHT22;1435;49.472;10.940;2023-05-10T07:24:38;15.40;99.90
2855;DHT22;1435;49.472;10.940;2023-05-10T07:29:40;15.40;99.90
2855;DHT22;1435;49.472;10.940;2023-05-10T07:34:41;15.40;99.90
2855;DHT22;1435;49.472;10.940;2023-05-10T07:39:44;15.50;99.90
2855;DHT22;1435;49.472;10.940;2023-05-10T07:44:46;15.50;99.90
2855;DHT22;1435;49.472;10.940;2023-05-10T07:49:48;15.50;99.90
2855;DHT22;1435;49.472;10.940;2023-05-10T07:54:51;15.50;99.90
2855;DHT22;1435;49.472;10.940;2023-05-10T07:59:52;15.60;99.90
2855;DHT22;1435;49.472;10.940;2023-05-10T08:04:54;15.70;99.90
2855;DHT22;1435;49.472;10.940;2023-05-10T08:09:57;15.70;99.90
2855;DHT22;1435;49.472;10.940;2023-05-10T08:14:59;15.70;99.90
2855;DHT22;1435;49.472;10.940;2023-05-10T08:20:01;15.70;99.90
2855;DHT22;1435;49.472;10.940;2023-05-10T08:25:05;15.60;99.90
2855;DHT22;1435;49.472;10.940;2023-05-10T08:30:08;15.70;99.90
2855;DHT22;1435;49.472;10.940;2023-05-10T08:35:10;15.70;99.90
2855;DHT22;1435;49.472;10.940;2023-05-10T08:40:14;15.80;99.90
2855;DHT22;1435;49.472;10.940;2023-05-10T08:45:17;15.90;99.90
2855;DHT22;1435;49.472;10.940;2023-05-10T08:50:20;15.80;99.90
2855;DHT22;1435;49.472;10.940;2023-05-10T08:55:26;15.80;99.90
2855;DHT22;1435;49.472;10.940;2023-05-10T09:00:28;15.80;99.90
2855;DHT22;1435;49.472;10.940;2023-05-10T09:05:30;15.80;99.90
2855;DHT22;1435;49.472;10.940;2023-05-10T09:10:33;15.90;99.90
2855;DHT22;1435;49.472;10.940;2023-05-10T09:15:35;15.80;99.90
2855;DHT22;1435;49.472;10.940;2023-05-10T09:20:37;15.90;99.90
2855;DHT22;1435;49.472;10.940;2023-05-10T09:25:41;15.80;99.90
2855;DHT22;1435;49.472;10.940;2023-05-10T09:30:43;15.90;99.90
2855;DHT22;1435;49.472;10.940;2023-05-10T09:35:44;15.90;99.90
2855;DHT22;1435;49.472;10.940;2023-05-10T09:40:52;15.90;99.90
2855;DHT22;1435;49.472;10.940;2023-05-10T09:45:56;16.00;99.90
2855;DHT22;1435;49.472;10.940;2023-05-10T09:50:57;16.00;99.90
2855;DHT22;1435;49.472;10.940;2023-05-10T09:56:01;16.10;99.90
2855;DHT22;1435;49.472;10.940;2023-05-10T10:01:03;16.20;99.90
2855;DHT22;1435;49.472;10.940;2023-05-10T10:06:07;16.30;99.90
2855;DHT22;1435;49.472;10.940;2023-05-10T10:11:10;16.40;99.90
2855;DHT22;1435;49.472;10.940;2023-05-10T10:16:12;16.50;99.90
2855;DHT22;1435;49.472;10.940;2023-05-10T10:21:15;16.60;99.90
2855;DHT22;1435;49.472;10.940;2023-05-10T10:26:18;16.70;99.90
2855;DHT22;1435;49.472;10.940;2023-05-10T10:31:27;16.80;99.90
2855;DHT22;1435;49.472;10.940;2023-05-10T10:36:39;16.70;99.90
2855;DHT22;1435;49.472;10.940;2023-05-10T10:41:50;16.80;99.90
2855;DHT22;1435;49.472;10.940;2023-05-10T10:46:59;16.70;99.90
2855;DHT22;1435;49.472;10.940;2023-05-10T10:52:21;16.80;99.90
2855;DHT22;1435;49.472;10.940;2023-05-10T10:57:24;16.80;99.90
2855;DHT22;1435;49.472;10.940;2023-05-10T11:02:33;16.70;99.90
2855;DHT22;1435;49.472;10.940;2023-05-10T11:07:35;16.80;99.90
2855;DHT22;1435;49.472;10.940;2023-05-10T11:12:51;16.90;99.90
2855;DHT22;1435;49.472;10.940;2023-05-10T11:17:53;16.80;99.90
2855;DHT22;1435;49.472;10.940;2023-05-10T11:22:56;16.80;99.90
2855;DHT22;1435;49.472;10.940;2023-05-10T11:28:02;16.80;99.90
2855;DHT22;1435;49.472;10.940;2023-05-10T11:33:05;16.90;99.90
2855;DHT22;1435;49.472;10.940;2023-05-10T11:38:08;17.00;99.90
2855;DHT22;1435;49.472;10.940;2023-05-10T11:43:11;17.00;99.90
2855;DHT22;1435;49.472;10.940;2023-05-10T11:48:13;17.10;99.90
2855;DHT22;1435;49.472;10.940;2023-05-10T11:53:17;17.10;99.90
2855;DHT22;1435;49.472;10.940;2023-05-10T11:58:22;17.10;99.90
2855;DHT22;1435;49.472;10.940;2023-05-10T12:03:24;17.10;99.90
2855;DHT22;1435;49.472;10.940;2023-05-10T12:08:27;17.20;99.90
2855;DHT22;1435;49.472;10.940;2023-05-10T12:13:30;17.20;99.90
2855;DHT22;1435;49.472;10.940;2023-05-10T12:18:33;17.30;99.90
2855;DHT22;1435;49.472;10.940;2023-05-10T12:23:35;17.40;99.90
2855;DHT22;1435;49.472;10.940;2023-05-10T12:28:38;17.40;99.90
2855;DHT22;1435;49.472;10.940;2023-05-10T12:33:42;17.50;99.90
2855;DHT22;1435;49.472;10.940;2023-05-10T12:38:45;17.50;99.90
2855;DHT22;1435;49.472;10.940;2023-05-10T12:43:49;17.50;99.90
2855;DHT22;1435;49.472;10.940;2023-05-10T12:48:51;17.40;99.90
2855;DHT22;1435;49.472;10.940;2023-05-10T12:53:55;17.50;99.90
2855;DHT22;1435;49.472;10.940;2023-05-10T12:58:58;17.60;99.90
2855;DHT22;1435;49.472;10.940;2023-05-10T13:04:00;17.60;99.90
2855;DHT22;1435;49.472;10.940;2023-05-10T13:09:01;17.70;99.90
2855;DHT22;1435;49.472;10.940;2023-05-10T13:14:05;17.70;99.90
2855;DHT22;1435;49.472;10.940;2023-05-10T13:19:06;17.80;99.90
2855;DHT22;1435;49.472;10.940;2023-05-10T13:24:08;17.90;99.90
2855;DHT22;1435;49.472;10.940;2023-05-10T13:29:12;17.90;99.90
2855;DHT22;1435;49.472;10.940;2023-05-10T13:34:14;18.00;99.90
2855;DHT22;1435;49.472;10.940;2023-05-10T13:39:15;18.00;99.90
2855;DHT22;1435;49.472;10.940;2023-05-10T13:44:20;17.90;99.90
2855;DHT22;1435;49.472;10.940;2023-05-10T13:49:22;17.90;99.90
2855;DHT22;1435;49.472;10.940;2023-05-10T13:54:24;17.90;99.90
2855;DHT22;1435;49.472;10.940;2023-05-10T13:59:31;17.80;99.90
2855;DHT22;1435;49.472;10.940;2023-05-10T14:04:33;17.90;99.90
2855;DHT22;1435;49.472;10.940;2023-05-10T14:09:35;17.90;99.90
2855;DHT22;1435;49.472;10.940;2023-05-10T14:14:38;17.80;99.90
2855;DHT22;1435;49.472;10.940;2023-05-10T14:19:40;17.80;99.90
2855;DHT22;1435;49.472;10.940;2023-05-10T14:24:42;17.80;99.90
2855;DHT22;1435;49.472;10.940;2023-05-10T14:29:48;17.80;99.90
2855;DHT22;1435;49.472;10.940;2023-05-10T14:34:50;17.90;99.90
2855;DHT22;1435;49.472;10.940;2023-05-10T14:39:52;17.80;99.90
2855;DHT22;1435;49.472;10.940;2023-05-10T14:44:55;17.70;99.90
2855;DHT22;1435;49.472;10.940;2023-05-10T14:49:57;17.70;99.90
2855;DHT22;1435;49.472;10.940;2023-05-10T14:54:59;17.70;99.90
2855;DHT22;1435;49.472;10.940;2023-05-10T15:00:04;17.90;99.90
2855;DHT22;1435;49.472;10.940;2023-05-10T15:05:06;17.50;99.90
2855;DHT22;1435;49.472;10.940;2023-05-10T15:10:09;17.20;99.90
2855;DHT22;1435;49.472;10.940;2023-05-10T15:15:12;16.90;99.90
2855;DHT22;1435;49.472;10.940;2023-05-10T15:20:13;16.90;99.90
2855;DHT22;1435;49.472;10.940;2023-05-10T15:25:15;16.90;99.90
2855;DHT22;1435;49.472;10.940;2023-05-10T15:30:18;16.60;99.90
2855;DHT22;1435;49.472;10.940;2023-05-10T15:35:20;16.60;99.90
2855;DHT22;1435;49.472;10.940;2023-05-10T15:40:22;16.60;99.90
2855;DHT22;1435;49.472;10.940;2023-05-10T15:45:25;16.70;99.90
2855;DHT22;1435;49.472;10.940;2023-05-10T15:50:27;16.60;99.90
2855;DHT22;1435;49.472;10.940;2023-05-10T15:55:29;16.70;99.90
2855;DHT22;1435;49.472;10.940;2023-05-10T16:00:32;16.80;99.90
2855;DHT22;1435;49.472;10.940;2023-05-10T16:05:34;16.80;99.90
2855;DHT22;1435;49.472;10.940;2023-05-10T16:10:35;16.60;99.90
2855;DHT22;1435;49.472;10.940;2023-05-10T16:15:39;16.60;99.90
2855;DHT22;1435;49.472;10.940;2023-05-10T16:20:41;16.60;99.90
2855;DHT22;1435;49.472;10.940;2023-05-10T16:25:43;16.60;99.90
2855;DHT22;1435;49.472;10.940;2023-05-10T16:30:46;16.60;99.90
2855;DHT22;1435;49.472;10.940;2023-05-10T16:35:47;16.70;99.90
2855;DHT22;1435;49.472;10.940;2023-05-10T16:40:49;16.80;99.90
2855;DHT22;1435;49.472;10.940;2023-05-10T16:45:52;16.80;99.90
2855;DHT22;1435;49.472;10.940;2023-05-10T16:50:54;16.80;99.90
2855;DHT22;1435;49.472;10.940;2023-05-10T16:55:55;16.70;99.90
2855;DHT22;1435;49.472;10.940;2023-05-10T17:00:59;16.80;99.90
2855;DHT22;1435;49.472;10.940;2023-05-10T17:06:00;16.80;99.90
2855;DHT22;1435;49.472;10.940;2023-05-10T17:11:03;16.70;99.90
2855;DHT22;1435;49.472;10.940;2023-05-10T17:16:06;16.70;99.90
2855;DHT22;1435;49.472;10.940;2023-05-10T17:21:08;16.50;99.90
2855;DHT22;1435;49.472;10.940;2023-05-10T17:26:10;16.60;99.90
2855;DHT22;1435;49.472;10.940;2023-05-10T17:31:13;16.50;99.90
2855;DHT22;1435;49.472;10.940;2023-05-10T17:36:15;16.50;99.90
2855;DHT22;1435;49.472;10.940;2023-05-10T17:41:17;16.30;99.90
2855;DHT22;1435;49.472;10.940;2023-05-10T17:46:20;16.20;99.90
2855;DHT22;1435;49.472;10.940;2023-05-10T17:51:22;16.30;99.90
2855;DHT22;1435;49.472;10.940;2023-05-10T17:56:23;16.30;99.90
2855;DHT22;1435;49.472;10.940;2023-05-10T18:01:26;16.00;99.90
2855;DHT22;1435;49.472;10.940;2023-05-10T18:06:28;16.10;99.90
2855;DHT22;1435;49.472;10.940;2023-05-10T18:11:30;16.20;99.90
2855;DHT22;1435;49.472;10.940;2023-05-10T18:16:33;16.30;99.90
2855;DHT22;1435;49.472;10.940;2023-05-10T18:21:35;16.40;99.90
2855;DHT22;1435;49.472;10.940;2023-05-10T18:26:37;16.40;99.90
2855;DHT22;1435;49.472;10.940;2023-05-10T18:31:40;16.40;99.90
2855;DHT22;1435;49.472;10.940;2023-05-10T18:36:41;16.40;99.90
2855;DHT22;1435;49.472;10.940;2023-05-10T18:41:44;16.40;99.90
2855;DHT22;1435;49.472;10.940;2023-05-10T18:46:47;16.40;99.90
2855;DHT22;1435;49.472;10.940;2023-05-10T18:51:51;16.40;99.90
2855;DHT22;1435;49.472;10.940;2023-05-10T18:56:53;16.40;99.90
2855;DHT22;1435;49.472;10.940;2023-05-10T19:01:58;16.30;99.90
2855;DHT22;1435;49.472;10.940;2023-05-10T19:06:59;16.30;99.90
2855;DHT22;1435;49.472;10.940;2023-05-10T19:12:01;16.20;99.90
2855;DHT22;1435;49.472;10.940;2023-05-10T19:17:04;16.20;99.90
2855;DHT22;1435;49.472;10.940;2023-05-10T19:22:06;16.20;99.90
2855;DHT22;1435;49.472;10.940;2023-05-10T19:27:08;16.10;99.90
2855;DHT22;1435;49.472;10.940;2023-05-10T19:32:11;16.10;99.90
2855;DHT22;1435;49.472;10.940;2023-05-10T19:37:13;16.10;99.90
2855;DHT22;1435;49.472;10.940;2023-05-10T19:42:15;16.00;99.90
2855;DHT22;1435;49.472;10.940;2023-05-10T19:47:18;15.90;99.90
2855;DHT22;1435;49.472;10.940;2023-05-10T19:52:20;15.80;99.90
2855;DHT22;1435;49.472;10.940;2023-05-10T19:57:22;15.70;99.90
2855;DHT22;1435;49.472;10.940;2023-05-10T20:02:25;15.70;99.90
2855;DHT22;1435;49.472;10.940;2023-05-10T20:07:26;15.60;99.90
2855;DHT22;1435;49.472;10.940;2023-05-10T20:12:28;15.60;99.90
2855;DHT22;1435;49.472;10.940;2023-05-10T20:17:31;15.50;99.90
2855;DHT22;1435;49.472;10.940;2023-05-10T20:22:33;15.50;99.90
2855;DHT22;1435;49.472;10.940;2023-05-10T20:27:35;15.40;99.90
2855;DHT22;1435;49.472;10.940;2023-05-10T20:32:38;15.40;99.90
2855;DHT22;1435;49.472;10.940;2023-05-10T20:37:39;15.40;99.90
2855;DHT22;1435;49.472;10.940;2023-05-10T20:42:41;15.40;99.90
2855;DHT22;1435;49.472;10.940;2023-05-10T20:47:44;15.40;99.90
2855;DHT22;1435;49.472;10.940;2023-05-10T20:52:46;15.30;99.90
2855;DHT22;1435;49.472;10.940;2023-05-10T20:57:50;15.40;99.90
2855;DHT22;1435;49.472;10.940;2023-05-10T21:02:53;15.40;99.90
2855;DHT22;1435;49.472;10.940;2023-05-10T21:07:56;15.40;99.90
2855;DHT22;1435;49.472;10.940;2023-05-10T21:12:57;15.40;99.90
2855;DHT22;1435;49.472;10.940;2023-05-10T21:18:01;15.30;99.90
2855;DHT22;1435;49.472;10.940;2023-05-10T21:23:02;15.30;99.90
2855;DHT22;1435;49.472;10.940;2023-05-10T21:28:04;15.30;99.90
2855;DHT22;1435;49.472;10.940;2023-05-10T21:33:07;15.30;99.90
2855;DHT22;1435;49.472;10.940;2023-05-10T21:38:09;15.30;99.90
2855;DHT22;1435;49.472;10.940;2023-05-10T21:43:11;15.20;99.90
2855;DHT22;1435;49.472;10.940;2023-05-10T21:48:14;15.20;99.90
2855;DHT22;1435;49.472;10.940;2023-05-10T21:53:16;15.20;99.90
2855;DHT22;1435;49.472;10.940;2023-05-10T21:58:17;15.20;99.90
2855;DHT22;1435;49.472;10.940;2023-05-10T22:03:21;15.20;99.90
2855;DHT22;1435;49.472;10.940;2023-05-10T22:08:23;15.10;99.90
2855;DHT22;1435;49.472;10.940;2023-05-10T22:13:25;15.10;99.90
2855;DHT22;1435;49.472;10.940;2023-05-10T22:18:28;15.10;99.90
2855;DHT22;1435;49.472;10.940;2023-05-10T22:23:29;15.10;99.90
2855;DHT22;1435;49.472;10.940;2023-05-10T22:28:31;15.10;99.90
2855;DHT22;1435;49.472;10.940;2023-05-10T22:33:34;15.00;99.90
2855;DHT22;1435;49.472;10.940;2023-05-10T22:38:36;15.00;99.90
2855;DHT22;1435;49.472;10.940;2023-05-10T22:43:37;15.00;99.90
2855;DHT22;1435;49.472;10.940;2023-05-10T22:48:41;15.00;99.90
2855;DHT22;1435;49.472;10.940;2023-05-10T22:53:43;15.00;99.90
2855;DHT22;1435;49.472;10.940;2023-05-10T22:58:45;15.00;99.90
2855;DHT22;1435;49.472;10.940;2023-05-10T23:03:48;14.90;99.90
2855;DHT22;1435;49.472;10.940;2023-05-10T23:08:50;14.90;99.90
2855;DHT22;1435;49.472;10.940;2023-05-10T23:13:52;14.90;99.90
2855;DHT22;1435;49.472;10.940;2023-05-10T23:18:55;14.70;99.90
2855;DHT22;1435;49.472;10.940;2023-05-10T23:23:58;14.70;99.90
2855;DHT22;1435;49.472;10.940;2023-05-10T23:28:59;14.70;99.90
2855;DHT22;1435;49.472;10.940;2023-05-10T23:34:03;14.80;99.90
2855;DHT22;1435;49.472;10.940;2023-05-10T23:39:05;14.80;99.90
2855;DHT22;1435;49.472;10.940;2023-05-10T23:44:07;14.70;99.90
2855;DHT22;1435;49.472;10.940;2023-05-10T23:49:10;14.70;99.90
2855;DHT22;1435;49.472;10.940;2023-05-10T23:54:12;14.70;99.90
2855;DHT22;1435;49.472;10.940;2023-05-10T23:59:13;14.60;99.90
